sensor_id;sensor_type;location;lat;lon;timestamp;P1;durP1;ratioP1;P2;durP2;ratioP2
46561;SDS011;32289;42.688;23.330;2022-07-10T00:00:51;14.23;;;10.32;;
46561;SDS011;32289;42.688;23.330;2022-07-10T00:04:33;11.13;;;9.20;;
46561;SDS011;32289;42.688;23.330;2022-07-10T00:08:14;17.30;;;9.90;;
46561;SDS011;32289;42.688;23.330;2022-07-10T00:11:54;12.05;;;9.50;;
46561;SDS011;32289;42.688;23.330;2022-07-10T00:15:35;16.35;;;9.32;;
46561;SDS011;32289;42.688;23.330;2022-07-10T00:19:16;12.63;;;9.73;;
46561;SDS011;32289;42.688;23.330;2022-07-10T00:22:57;12.77;;;9.00;;
46561;SDS011;32289;42.688;23.330;2022-07-10T00:26:38;14.95;;;10.57;;
46561;SDS011;32289;42.688;23.330;2022-07-10T00:30:18;15.13;;;9.60;;
46561;SDS011;32289;42.688;23.330;2022-07-10T00:34:02;13.45;;;10.35;;
46561;SDS011;32289;42.688;23.330;2022-07-10T00:37:43;14.38;;;10.55;;
46561;SDS011;32289;42.688;23.330;2022-07-10T00:41:23;14.70;;;9.77;;
46561;SDS011;32289;42.688;23.330;2022-07-10T00:45:04;18.48;;;10.73;;
46561;SDS011;32289;42.688;23.330;2022-07-10T00:48:49;14.65;;;10.65;;
46561;SDS011;32289;42.688;23.330;2022-07-10T00:52:30;15.43;;;10.63;;
46561;SDS011;32289;42.688;23.330;2022-07-10T00:56:11;12.90;;;9.68;;
46561;SDS011;32289;42.688;23.330;2022-07-10T00:59:52;15.75;;;10.30;;
46561;SDS011;32289;42.688;23.330;2022-07-10T01:03:33;12.25;;;9.50;;
46561;SDS011;32289;42.688;23.330;2022-07-10T01:07:14;15.05;;;9.75;;
46561;SDS011;32289;42.688;23.330;2022-07-10T01:10:55;15.70;;;9.90;;
46561;SDS011;32289;42.688;23.330;2022-07-10T01:14:37;14.48;;;10.30;;
46561;SDS011;32289;42.688;23.330;2022-07-10T01:18:19;13.75;;;10.05;;
46561;SDS011;32289;42.688;23.330;2022-07-10T01:22:00;13.60;;;9.50;;
46561;SDS011;32289;42.688;23.330;2022-07-10T01:25:41;14.07;;;8.93;;
46561;SDS011;32289;42.688;23.330;2022-07-10T01:29:22;13.60;;;9.18;;
46561;SDS011;32289;42.688;23.330;2022-07-10T01:33:03;16.10;;;9.65;;
46561;SDS011;32289;42.688;23.330;2022-07-10T01:36:43;13.25;;;9.07;;
46561;SDS011;32289;42.688;23.330;2022-07-10T01:40:24;14.25;;;9.63;;
46561;SDS011;32289;42.688;23.330;2022-07-10T01:44:05;14.68;;;10.13;;
46561;SDS011;32289;42.688;23.330;2022-07-10T01:47:46;15.95;;;9.43;;
46561;SDS011;32289;42.688;23.330;2022-07-10T01:51:27;11.90;;;9.13;;
46561;SDS011;32289;42.688;23.330;2022-07-10T01:55:07;12.20;;;9.75;;
46561;SDS011;32289;42.688;23.330;2022-07-10T01:58:48;14.40;;;10.00;;
46561;SDS011;32289;42.688;23.330;2022-07-10T02:02:29;14.48;;;9.82;;
46561;SDS011;32289;42.688;23.330;2022-07-10T02:06:10;13.70;;;8.75;;
46561;SDS011;32289;42.688;23.330;2022-07-10T02:09:51;13.60;;;8.93;;
46561;SDS011;32289;42.688;23.330;2022-07-10T02:13:31;11.45;;;8.23;;
46561;SDS011;32289;42.688;23.330;2022-07-10T02:17:15;12.45;;;9.00;;
46561;SDS011;32289;42.688;23.330;2022-07-10T02:21:03;11.85;;;8.52;;
46561;SDS011;32289;42.688;23.330;2022-07-10T02:24:43;15.32;;;9.32;;
46561;SDS011;32289;42.688;23.330;2022-07-10T02:28:24;13.77;;;9.98;;
46561;SDS011;32289;42.688;23.330;2022-07-10T02:32:05;12.38;;;8.88;;
46561;SDS011;32289;42.688;23.330;2022-07-10T02:35:46;14.38;;;9.45;;
46561;SDS011;32289;42.688;23.330;2022-07-10T02:39:27;12.02;;;8.75;;
46561;SDS011;32289;42.688;23.330;2022-07-10T02:43:07;12.65;;;9.90;;
46561;SDS011;32289;42.688;23.330;2022-07-10T02:46:48;11.45;;;9.05;;
46561;SDS011;32289;42.688;23.330;2022-07-10T02:50:29;16.42;;;9.30;;
46561;SDS011;32289;42.688;23.330;2022-07-10T02:54:13;14.60;;;9.02;;
46561;SDS011;32289;42.688;23.330;2022-07-10T02:57:53;18.10;;;8.85;;
46561;SDS011;32289;42.688;23.330;2022-07-10T03:01:34;14.20;;;9.30;;
46561;SDS011;32289;42.688;23.330;2022-07-10T03:05:15;13.05;;;9.15;;
46561;SDS011;32289;42.688;23.330;2022-07-10T03:08:56;14.52;;;9.00;;
46561;SDS011;32289;42.688;23.330;2022-07-10T03:12:37;11.82;;;8.95;;
46561;SDS011;32289;42.688;23.330;2022-07-10T03:16:17;12.30;;;9.52;;
46561;SDS011;32289;42.688;23.330;2022-07-10T03:19:58;15.15;;;8.77;;
46561;SDS011;32289;42.688;23.330;2022-07-10T03:23:39;11.10;;;8.55;;
46561;SDS011;32289;42.688;23.330;2022-07-10T03:27:19;12.07;;;8.18;;
46561;SDS011;32289;42.688;23.330;2022-07-10T03:31:00;14.75;;;8.60;;
46561;SDS011;32289;42.688;23.330;2022-07-10T03:34:42;10.50;;;8.00;;
46561;SDS011;32289;42.688;23.330;2022-07-10T03:38:22;15.10;;;7.80;;
46561;SDS011;32289;42.688;23.330;2022-07-10T03:42:03;15.02;;;8.95;;
46561;SDS011;32289;42.688;23.330;2022-07-10T03:45:46;14.77;;;8.55;;
46561;SDS011;32289;42.688;23.330;2022-07-10T03:49:26;12.10;;;8.85;;
46561;SDS011;32289;42.688;23.330;2022-07-10T03:53:07;13.50;;;8.88;;
46561;SDS011;32289;42.688;23.330;2022-07-10T03:56:48;11.65;;;7.65;;
46561;SDS011;32289;42.688;23.330;2022-07-10T04:00:47;11.57;;;8.60;;
46561;SDS011;32289;42.688;23.330;2022-07-10T04:04:27;9.25;;;7.38;;
46561;SDS011;32289;42.688;23.330;2022-07-10T04:08:08;10.60;;;6.95;;
46561;SDS011;32289;42.688;23.330;2022-07-10T04:11:49;11.27;;;6.78;;
46561;SDS011;32289;42.688;23.330;2022-07-10T04:15:30;8.30;;;6.53;;
46561;SDS011;32289;42.688;23.330;2022-07-10T04:19:11;10.70;;;6.30;;
46561;SDS011;32289;42.688;23.330;2022-07-10T04:22:51;9.45;;;5.50;;
46561;SDS011;32289;42.688;23.330;2022-07-10T04:26:32;7.22;;;6.25;;
46561;SDS011;32289;42.688;23.330;2022-07-10T04:30:13;17.08;;;5.50;;
46561;SDS011;32289;42.688;23.330;2022-07-10T04:33:54;6.50;;;5.18;;
46561;SDS011;32289;42.688;23.330;2022-07-10T04:37:37;8.23;;;5.47;;
46561;SDS011;32289;42.688;23.330;2022-07-10T04:41:18;8.80;;;5.30;;
46561;SDS011;32289;42.688;23.330;2022-07-10T04:44:59;6.97;;;5.05;;
46561;SDS011;32289;42.688;23.330;2022-07-10T04:48:40;8.07;;;5.40;;
46561;SDS011;32289;42.688;23.330;2022-07-10T04:52:21;5.50;;;4.60;;
46561;SDS011;32289;42.688;23.330;2022-07-10T04:56:01;5.07;;;4.20;;
46561;SDS011;32289;42.688;23.330;2022-07-10T04:59:42;5.80;;;4.38;;
46561;SDS011;32289;42.688;23.330;2022-07-10T05:03:23;8.25;;;4.60;;
46561;SDS011;32289;42.688;23.330;2022-07-10T05:07:03;7.88;;;4.85;;
46561;SDS011;32289;42.688;23.330;2022-07-10T05:10:44;8.13;;;5.10;;
46561;SDS011;32289;42.688;23.330;2022-07-10T05:14:25;5.43;;;4.65;;
46561;SDS011;32289;42.688;23.330;2022-07-10T05:18:07;9.23;;;5.43;;
46561;SDS011;32289;42.688;23.330;2022-07-10T05:21:47;4.90;;;4.25;;
46561;SDS011;32289;42.688;23.330;2022-07-10T05:25:28;6.25;;;4.68;;
46561;SDS011;32289;42.688;23.330;2022-07-10T05:29:10;4.97;;;4.22;;
46561;SDS011;32289;42.688;23.330;2022-07-10T05:32:51;6.50;;;4.47;;
46561;SDS011;32289;42.688;23.330;2022-07-10T05:36:34;5.00;;;3.88;;
46561;SDS011;32289;42.688;23.330;2022-07-10T05:40:15;5.10;;;4.57;;
46561;SDS011;32289;42.688;23.330;2022-07-10T05:43:55;4.60;;;3.80;;
46561;SDS011;32289;42.688;23.330;2022-07-10T05:47:36;5.70;;;4.40;;
46561;SDS011;32289;42.688;23.330;2022-07-10T05:51:17;4.18;;;3.55;;
46561;SDS011;32289;42.688;23.330;2022-07-10T05:54:58;3.92;;;3.50;;
46561;SDS011;32289;42.688;23.330;2022-07-10T05:58:39;7.15;;;3.85;;
46561;SDS011;32289;42.688;23.330;2022-07-10T06:02:20;4.70;;;3.72;;
46561;SDS011;32289;42.688;23.330;2022-07-10T06:06:00;5.72;;;4.00;;
46561;SDS011;32289;42.688;23.330;2022-07-10T06:09:41;7.25;;;3.92;;
46561;SDS011;32289;42.688;23.330;2022-07-10T06:13:22;5.43;;;4.13;;
46561;SDS011;32289;42.688;23.330;2022-07-10T06:17:03;6.38;;;3.75;;
46561;SDS011;32289;42.688;23.330;2022-07-10T06:20:44;6.80;;;3.40;;
46561;SDS011;32289;42.688;23.330;2022-07-10T06:24:24;6.75;;;3.15;;
46561;SDS011;32289;42.688;23.330;2022-07-10T06:28:05;4.93;;;3.60;;
46561;SDS011;32289;42.688;23.330;2022-07-10T06:31:46;7.13;;;3.22;;
46561;SDS011;32289;42.688;23.330;2022-07-10T06:35:26;8.90;;;3.30;;
46561;SDS011;32289;42.688;23.330;2022-07-10T06:39:07;4.90;;;2.88;;
46561;SDS011;32289;42.688;23.330;2022-07-10T06:42:48;4.20;;;2.92;;
46561;SDS011;32289;42.688;23.330;2022-07-10T06:46:28;6.10;;;3.30;;
46561;SDS011;32289;42.688;23.330;2022-07-10T06:50:09;3.58;;;2.92;;
46561;SDS011;32289;42.688;23.330;2022-07-10T06:53:50;4.55;;;2.97;;
46561;SDS011;32289;42.688;23.330;2022-07-10T06:57:31;6.43;;;2.80;;
46561;SDS011;32289;42.688;23.330;2022-07-10T07:01:12;4.20;;;3.38;;
46561;SDS011;32289;42.688;23.330;2022-07-10T07:04:52;4.53;;;3.08;;
46561;SDS011;32289;42.688;23.330;2022-07-10T07:08:33;5.50;;;3.13;;
46561;SDS011;32289;42.688;23.330;2022-07-10T07:12:16;4.45;;;3.22;;
46561;SDS011;32289;42.688;23.330;2022-07-10T07:16:00;5.55;;;3.60;;
46561;SDS011;32289;42.688;23.330;2022-07-10T07:19:45;6.47;;;3.13;;
46561;SDS011;32289;42.688;23.330;2022-07-10T07:23:44;4.57;;;3.35;;
46561;SDS011;32289;42.688;23.330;2022-07-10T07:27:25;7.82;;;3.30;;
46561;SDS011;32289;42.688;23.330;2022-07-10T07:31:08;3.75;;;3.35;;
46561;SDS011;32289;42.688;23.330;2022-07-10T07:34:49;4.82;;;3.58;;
46561;SDS011;32289;42.688;23.330;2022-07-10T07:38:30;7.82;;;3.15;;
46561;SDS011;32289;42.688;23.330;2022-07-10T07:42:11;7.25;;;3.20;;
46561;SDS011;32289;42.688;23.330;2022-07-10T07:45:52;3.85;;;2.85;;
46561;SDS011;32289;42.688;23.330;2022-07-10T07:49:33;6.85;;;3.22;;
46561;SDS011;32289;42.688;23.330;2022-07-10T07:53:13;4.32;;;2.67;;
46561;SDS011;32289;42.688;23.330;2022-07-10T07:56:54;4.97;;;3.40;;
46561;SDS011;32289;42.688;23.330;2022-07-10T08:00:35;3.88;;;2.60;;
46561;SDS011;32289;42.688;23.330;2022-07-10T08:04:15;3.45;;;2.67;;
46561;SDS011;32289;42.688;23.330;2022-07-10T08:07:57;3.90;;;2.55;;
46561;SDS011;32289;42.688;23.330;2022-07-10T08:11:41;4.32;;;3.17;;
46561;SDS011;32289;42.688;23.330;2022-07-10T08:15:22;4.85;;;2.50;;
46561;SDS011;32289;42.688;23.330;2022-07-10T08:19:03;4.68;;;2.88;;
46561;SDS011;32289;42.688;23.330;2022-07-10T08:22:46;4.20;;;2.40;;
46561;SDS011;32289;42.688;23.330;2022-07-10T08:26:28;4.07;;;2.35;;
46561;SDS011;32289;42.688;23.330;2022-07-10T08:30:09;3.95;;;3.05;;
46561;SDS011;32289;42.688;23.330;2022-07-10T08:33:50;6.30;;;3.03;;
46561;SDS011;32289;42.688;23.330;2022-07-10T08:37:38;4.93;;;3.20;;
46561;SDS011;32289;42.688;23.330;2022-07-10T08:41:22;3.92;;;2.67;;
46561;SDS011;32289;42.688;23.330;2022-07-10T08:45:05;5.13;;;2.80;;
46561;SDS011;32289;42.688;23.330;2022-07-10T08:48:47;3.85;;;2.50;;
46561;SDS011;32289;42.688;23.330;2022-07-10T08:52:33;5.65;;;2.45;;
46561;SDS011;32289;42.688;23.330;2022-07-10T08:56:18;9.32;;;7.43;;
46561;SDS011;32289;42.688;23.330;2022-07-10T08:59:59;5.63;;;2.13;;
46561;SDS011;32289;42.688;23.330;2022-07-10T09:03:39;7.57;;;3.33;;
46561;SDS011;32289;42.688;23.330;2022-07-10T09:07:20;4.03;;;2.75;;
46561;SDS011;32289;42.688;23.330;2022-07-10T09:11:17;4.60;;;2.72;;
46561;SDS011;32289;42.688;23.330;2022-07-10T09:15:14;7.22;;;4.57;;
46561;SDS011;32289;42.688;23.330;2022-07-10T09:18:56;6.28;;;2.80;;
46561;SDS011;32289;42.688;23.330;2022-07-10T09:22:53;7.95;;;5.45;;
46561;SDS011;32289;42.688;23.330;2022-07-10T09:26:38;7.13;;;4.50;;
46561;SDS011;32289;42.688;23.330;2022-07-10T09:30:30;6.18;;;2.90;;
46561;SDS011;32289;42.688;23.330;2022-07-10T09:34:15;4.07;;;3.53;;
46561;SDS011;32289;42.688;23.330;2022-07-10T09:37:56;4.93;;;2.63;;
46561;SDS011;32289;42.688;23.330;2022-07-10T09:41:36;8.85;;;3.88;;
46561;SDS011;32289;42.688;23.330;2022-07-10T09:45:18;6.40;;;4.43;;
46561;SDS011;32289;42.688;23.330;2022-07-10T09:49:18;7.18;;;2.63;;
46561;SDS011;32289;42.688;23.330;2022-07-10T09:52:59;6.22;;;2.45;;
46561;SDS011;32289;42.688;23.330;2022-07-10T09:56:44;4.72;;;2.47;;
46561;SDS011;32289;42.688;23.330;2022-07-10T10:00:32;4.75;;;2.50;;
46561;SDS011;32289;42.688;23.330;2022-07-10T10:04:18;7.30;;;5.25;;
46561;SDS011;32289;42.688;23.330;2022-07-10T10:08:09;6.65;;;3.00;;
46561;SDS011;32289;42.688;23.330;2022-07-10T10:12:21;4.32;;;2.40;;
46561;SDS011;32289;42.688;23.330;2022-07-10T10:16:04;3.05;;;1.83;;
46561;SDS011;32289;42.688;23.330;2022-07-10T10:19:48;4.10;;;2.75;;
46561;SDS011;32289;42.688;23.330;2022-07-10T10:23:50;5.68;;;3.15;;
46561;SDS011;32289;42.688;23.330;2022-07-10T10:27:32;4.80;;;2.65;;
46561;SDS011;32289;42.688;23.330;2022-07-10T10:31:13;5.25;;;3.13;;
46561;SDS011;32289;42.688;23.330;2022-07-10T10:34:54;6.60;;;3.55;;
46561;SDS011;32289;42.688;23.330;2022-07-10T10:42:32;6.82;;;4.82;;
46561;SDS011;32289;42.688;23.330;2022-07-10T10:46:25;20.25;;;10.93;;
46561;SDS011;32289;42.688;23.330;2022-07-10T10:50:06;5.38;;;3.03;;
46561;SDS011;32289;42.688;23.330;2022-07-10T10:53:48;7.38;;;3.55;;
46561;SDS011;32289;42.688;23.330;2022-07-10T10:57:45;6.38;;;3.75;;
46561;SDS011;32289;42.688;23.330;2022-07-10T11:01:28;5.80;;;2.38;;
46561;SDS011;32289;42.688;23.330;2022-07-10T11:08:54;4.85;;;2.53;;
46561;SDS011;32289;42.688;23.330;2022-07-10T11:12:59;4.82;;;3.20;;
46561;SDS011;32289;42.688;23.330;2022-07-10T11:16:51;5.43;;;2.67;;
46561;SDS011;32289;42.688;23.330;2022-07-10T11:20:36;6.18;;;2.55;;
46561;SDS011;32289;42.688;23.330;2022-07-10T11:28:21;3.70;;;2.10;;
46561;SDS011;32289;42.688;23.330;2022-07-10T11:32:05;3.90;;;2.33;;
46561;SDS011;32289;42.688;23.330;2022-07-10T11:35:49;7.57;;;2.70;;
46561;SDS011;32289;42.688;23.330;2022-07-10T11:39:31;4.85;;;2.42;;
46561;SDS011;32289;42.688;23.330;2022-07-10T11:43:11;2.70;;;1.95;;
46561;SDS011;32289;42.688;23.330;2022-07-10T11:46:57;12.32;;;4.45;;
46561;SDS011;32289;42.688;23.330;2022-07-10T11:50:38;8.88;;;3.90;;
46561;SDS011;32289;42.688;23.330;2022-07-10T11:54:19;9.00;;;3.17;;
46561;SDS011;32289;42.688;23.330;2022-07-10T11:57:59;3.90;;;2.25;;
46561;SDS011;32289;42.688;23.330;2022-07-10T12:01:41;5.35;;;3.33;;
46561;SDS011;32289;42.688;23.330;2022-07-10T12:05:37;4.93;;;2.90;;
46561;SDS011;32289;42.688;23.330;2022-07-10T12:09:22;5.40;;;2.90;;
46561;SDS011;32289;42.688;23.330;2022-07-10T12:13:10;4.05;;;2.58;;
46561;SDS011;32289;42.688;23.330;2022-07-10T12:16:53;5.18;;;2.47;;
46561;SDS011;32289;42.688;23.330;2022-07-10T12:20:35;5.18;;;2.33;;
46561;SDS011;32289;42.688;23.330;2022-07-10T12:24:17;4.20;;;1.85;;
46561;SDS011;32289;42.688;23.330;2022-07-10T12:28:01;12.00;;;3.65;;
46561;SDS011;32289;42.688;23.330;2022-07-10T12:31:42;5.25;;;2.58;;
46561;SDS011;32289;42.688;23.330;2022-07-10T12:35:22;2.63;;;1.88;;
46561;SDS011;32289;42.688;23.330;2022-07-10T12:39:03;3.30;;;2.00;;
46561;SDS011;32289;42.688;23.330;2022-07-10T12:42:44;2.80;;;1.88;;
46561;SDS011;32289;42.688;23.330;2022-07-10T12:46:25;4.43;;;1.95;;
46561;SDS011;32289;42.688;23.330;2022-07-10T12:50:05;4.05;;;2.13;;
46561;SDS011;32289;42.688;23.330;2022-07-10T12:53:47;5.55;;;1.42;;
46561;SDS011;32289;42.688;23.330;2022-07-10T12:57:27;3.80;;;1.80;;
46561;SDS011;32289;42.688;23.330;2022-07-10T13:01:09;7.72;;;2.38;;
46561;SDS011;32289;42.688;23.330;2022-07-10T13:04:57;6.43;;;2.50;;
46561;SDS011;32289;42.688;23.330;2022-07-10T13:08:44;7.70;;;2.78;;
46561;SDS011;32289;42.688;23.330;2022-07-10T13:12:26;4.57;;;2.43;;
46561;SDS011;32289;42.688;23.330;2022-07-10T13:16:08;2.25;;;1.08;;
46561;SDS011;32289;42.688;23.330;2022-07-10T13:19:49;3.50;;;1.63;;
46561;SDS011;32289;42.688;23.330;2022-07-10T13:23:31;2.38;;;1.30;;
46561;SDS011;32289;42.688;23.330;2022-07-10T13:27:12;6.00;;;1.65;;
46561;SDS011;32289;42.688;23.330;2022-07-10T13:30:53;1.88;;;1.17;;
46561;SDS011;32289;42.688;23.330;2022-07-10T13:34:34;2.72;;;1.42;;
46561;SDS011;32289;42.688;23.330;2022-07-10T13:38:16;3.97;;;1.15;;
46561;SDS011;32289;42.688;23.330;2022-07-10T13:42:00;2.60;;;1.67;;
46561;SDS011;32289;42.688;23.330;2022-07-10T13:45:41;4.03;;;1.60;;
46561;SDS011;32289;42.688;23.330;2022-07-10T13:49:24;3.25;;;1.80;;
46561;SDS011;32289;42.688;23.330;2022-07-10T13:53:07;5.85;;;1.40;;
46561;SDS011;32289;42.688;23.330;2022-07-10T13:56:48;2.63;;;1.67;;
46561;SDS011;32289;42.688;23.330;2022-07-10T14:00:29;10.85;;;5.35;;
46561;SDS011;32289;42.688;23.330;2022-07-10T14:04:09;8.98;;;5.40;;
46561;SDS011;32289;42.688;23.330;2022-07-10T14:07:50;15.07;;;8.52;;
46561;SDS011;32289;42.688;23.330;2022-07-10T14:11:31;5.53;;;2.38;;
46561;SDS011;32289;42.688;23.330;2022-07-10T14:15:12;4.47;;;1.65;;
46561;SDS011;32289;42.688;23.330;2022-07-10T14:18:53;4.28;;;1.70;;
46561;SDS011;32289;42.688;23.330;2022-07-10T14:22:34;4.18;;;2.55;;
46561;SDS011;32289;42.688;23.330;2022-07-10T14:26:17;5.05;;;2.00;;
46561;SDS011;32289;42.688;23.330;2022-07-10T14:29:58;4.57;;;1.70;;
46561;SDS011;32289;42.688;23.330;2022-07-10T14:33:39;10.10;;;2.60;;
46561;SDS011;32289;42.688;23.330;2022-07-10T14:37:20;6.13;;;4.45;;
46561;SDS011;32289;42.688;23.330;2022-07-10T14:41:02;6.00;;;1.95;;
46561;SDS011;32289;42.688;23.330;2022-07-10T14:44:44;4.80;;;1.52;;
46561;SDS011;32289;42.688;23.330;2022-07-10T14:48:25;3.42;;;1.55;;
46561;SDS011;32289;42.688;23.330;2022-07-10T14:52:06;5.45;;;2.30;;
46561;SDS011;32289;42.688;23.330;2022-07-10T14:55:47;1.92;;;1.30;;
46561;SDS011;32289;42.688;23.330;2022-07-10T14:59:28;4.20;;;2.00;;
46561;SDS011;32289;42.688;23.330;2022-07-10T15:03:09;3.65;;;1.70;;
46561;SDS011;32289;42.688;23.330;2022-07-10T15:06:49;6.50;;;2.15;;
46561;SDS011;32289;42.688;23.330;2022-07-10T15:10:30;6.78;;;2.17;;
46561;SDS011;32289;42.688;23.330;2022-07-10T15:14:12;2.20;;;1.20;;
46561;SDS011;32289;42.688;23.330;2022-07-10T15:17:53;4.40;;;1.50;;
46561;SDS011;32289;42.688;23.330;2022-07-10T15:21:34;3.38;;;2.03;;
46561;SDS011;32289;42.688;23.330;2022-07-10T15:25:15;5.35;;;1.95;;
46561;SDS011;32289;42.688;23.330;2022-07-10T15:28:56;3.33;;;1.52;;
46561;SDS011;32289;42.688;23.330;2022-07-10T15:32:38;3.20;;;1.60;;
46561;SDS011;32289;42.688;23.330;2022-07-10T15:36:19;3.90;;;1.65;;
46561;SDS011;32289;42.688;23.330;2022-07-10T15:40:01;3.03;;;1.20;;
46561;SDS011;32289;42.688;23.330;2022-07-10T15:43:42;3.60;;;1.85;;
46561;SDS011;32289;42.688;23.330;2022-07-10T15:47:25;4.53;;;2.42;;
46561;SDS011;32289;42.688;23.330;2022-07-10T15:51:05;4.38;;;2.00;;
46561;SDS011;32289;42.688;23.330;2022-07-10T15:54:46;4.20;;;1.73;;
46561;SDS011;32289;42.688;23.330;2022-07-10T15:58:27;6.40;;;2.28;;
46561;SDS011;32289;42.688;23.330;2022-07-10T16:02:08;3.30;;;2.17;;
46561;SDS011;32289;42.688;23.330;2022-07-10T16:05:50;7.05;;;3.17;;
46561;SDS011;32289;42.688;23.330;2022-07-10T16:09:31;6.07;;;3.45;;
46561;SDS011;32289;42.688;23.330;2022-07-10T16:13:12;5.13;;;2.30;;
46561;SDS011;32289;42.688;23.330;2022-07-10T16:16:53;3.10;;;1.83;;
46561;SDS011;32289;42.688;23.330;2022-07-10T16:20:35;4.93;;;3.00;;
46561;SDS011;32289;42.688;23.330;2022-07-10T16:24:18;2.70;;;2.10;;
46561;SDS011;32289;42.688;23.330;2022-07-10T16:27:58;2.85;;;2.28;;
46561;SDS011;32289;42.688;23.330;2022-07-10T16:31:39;6.15;;;3.58;;
46561;SDS011;32289;42.688;23.330;2022-07-10T16:35:21;2.70;;;1.77;;
46561;SDS011;32289;42.688;23.330;2022-07-10T16:39:02;2.65;;;1.75;;
46561;SDS011;32289;42.688;23.330;2022-07-10T16:42:44;4.95;;;1.98;;
46561;SDS011;32289;42.688;23.330;2022-07-10T16:46:24;4.53;;;2.40;;
46561;SDS011;32289;42.688;23.330;2022-07-10T16:50:05;5.40;;;2.53;;
46561;SDS011;32289;42.688;23.330;2022-07-10T16:53:48;4.43;;;1.90;;
46561;SDS011;32289;42.688;23.330;2022-07-10T16:57:29;3.90;;;2.20;;
46561;SDS011;32289;42.688;23.330;2022-07-10T17:01:09;2.85;;;1.73;;
46561;SDS011;32289;42.688;23.330;2022-07-10T17:04:54;2.95;;;1.77;;
46561;SDS011;32289;42.688;23.330;2022-07-10T17:08:38;3.80;;;2.08;;
46561;SDS011;32289;42.688;23.330;2022-07-10T17:12:19;3.00;;;1.40;;
46561;SDS011;32289;42.688;23.330;2022-07-10T17:16:00;4.70;;;2.90;;
46561;SDS011;32289;42.688;23.330;2022-07-10T17:19:40;3.97;;;1.83;;
46561;SDS011;32289;42.688;23.330;2022-07-10T17:23:21;3.35;;;2.00;;
46561;SDS011;32289;42.688;23.330;2022-07-10T17:27:02;4.60;;;2.22;;
46561;SDS011;32289;42.688;23.330;2022-07-10T17:30:42;5.72;;;3.08;;
46561;SDS011;32289;42.688;23.330;2022-07-10T17:34:23;4.03;;;2.92;;
46561;SDS011;32289;42.688;23.330;2022-07-10T17:38:04;4.85;;;2.20;;
46561;SDS011;32289;42.688;23.330;2022-07-10T17:41:45;3.65;;;1.77;;
46561;SDS011;32289;42.688;23.330;2022-07-10T17:45:25;3.95;;;1.65;;
46561;SDS011;32289;42.688;23.330;2022-07-10T17:49:06;7.10;;;2.50;;
46561;SDS011;32289;42.688;23.330;2022-07-10T17:52:47;3.78;;;2.10;;
46561;SDS011;32289;42.688;23.330;2022-07-10T17:56:27;18.25;;;7.43;;
46561;SDS011;32289;42.688;23.330;2022-07-10T18:00:08;4.43;;;2.70;;
46561;SDS011;32289;42.688;23.330;2022-07-10T18:03:49;6.47;;;2.35;;
46561;SDS011;32289;42.688;23.330;2022-07-10T18:07:30;2.50;;;1.63;;
46561;SDS011;32289;42.688;23.330;2022-07-10T18:11:12;8.05;;;2.70;;
46561;SDS011;32289;42.688;23.330;2022-07-10T18:14:54;4.18;;;1.60;;
46561;SDS011;32289;42.688;23.330;2022-07-10T18:18:46;4.15;;;2.35;;
46561;SDS011;32289;42.688;23.330;2022-07-10T18:22:28;3.95;;;2.72;;
46561;SDS011;32289;42.688;23.330;2022-07-10T18:26:10;3.30;;;1.52;;
46561;SDS011;32289;42.688;23.330;2022-07-10T18:29:51;4.40;;;1.77;;
46561;SDS011;32289;42.688;23.330;2022-07-10T18:33:32;6.38;;;1.90;;
46561;SDS011;32289;42.688;23.330;2022-07-10T18:37:31;3.53;;;1.58;;
46561;SDS011;32289;42.688;23.330;2022-07-10T18:41:12;3.85;;;1.98;;
46561;SDS011;32289;42.688;23.330;2022-07-10T18:44:53;3.38;;;2.22;;
46561;SDS011;32289;42.688;23.330;2022-07-10T18:48:34;3.30;;;1.88;;
46561;SDS011;32289;42.688;23.330;2022-07-10T18:52:15;9.50;;;2.40;;
46561;SDS011;32289;42.688;23.330;2022-07-10T18:55:55;6.53;;;3.08;;
46561;SDS011;32289;42.688;23.330;2022-07-10T18:59:36;7.43;;;2.45;;
46561;SDS011;32289;42.688;23.330;2022-07-10T19:03:17;5.60;;;3.35;;
46561;SDS011;32289;42.688;23.330;2022-07-10T19:06:57;8.20;;;2.50;;
46561;SDS011;32289;42.688;23.330;2022-07-10T19:10:38;3.05;;;2.40;;
46561;SDS011;32289;42.688;23.330;2022-07-10T19:14:19;5.00;;;2.25;;
46561;SDS011;32289;42.688;23.330;2022-07-10T19:18:00;4.53;;;2.42;;
46561;SDS011;32289;42.688;23.330;2022-07-10T19:21:41;5.75;;;2.25;;
46561;SDS011;32289;42.688;23.330;2022-07-10T19:25:22;4.05;;;2.22;;
46561;SDS011;32289;42.688;23.330;2022-07-10T19:29:05;3.00;;;1.75;;
46561;SDS011;32289;42.688;23.330;2022-07-10T19:32:46;2.70;;;1.90;;
46561;SDS011;32289;42.688;23.330;2022-07-10T19:36:27;5.80;;;3.33;;
46561;SDS011;32289;42.688;23.330;2022-07-10T19:40:08;3.83;;;2.55;;
46561;SDS011;32289;42.688;23.330;2022-07-10T19:43:49;3.47;;;2.45;;
46561;SDS011;32289;42.688;23.330;2022-07-10T19:47:29;6.38;;;2.63;;
46561;SDS011;32289;42.688;23.330;2022-07-10T19:51:10;3.00;;;2.00;;
46561;SDS011;32289;42.688;23.330;2022-07-10T19:54:51;4.18;;;2.28;;
46561;SDS011;32289;42.688;23.330;2022-07-10T19:58:32;3.78;;;1.85;;
46561;SDS011;32289;42.688;23.330;2022-07-10T20:02:13;3.22;;;2.28;;
46561;SDS011;32289;42.688;23.330;2022-07-10T20:05:54;4.53;;;1.98;;
46561;SDS011;32289;42.688;23.330;2022-07-10T20:09:35;3.38;;;2.13;;
46561;SDS011;32289;42.688;23.330;2022-07-10T20:13:15;3.50;;;2.78;;
46561;SDS011;32289;42.688;23.330;2022-07-10T20:16:57;5.72;;;1.92;;
46561;SDS011;32289;42.688;23.330;2022-07-10T20:20:38;4.28;;;1.90;;
46561;SDS011;32289;42.688;23.330;2022-07-10T20:24:19;5.78;;;1.80;;
46561;SDS011;32289;42.688;23.330;2022-07-10T20:28:00;3.63;;;2.00;;
46561;SDS011;32289;42.688;23.330;2022-07-10T20:31:40;3.17;;;1.88;;
46561;SDS011;32289;42.688;23.330;2022-07-10T20:35:21;4.22;;;2.28;;
46561;SDS011;32289;42.688;23.330;2022-07-10T20:39:02;3.97;;;1.90;;
46561;SDS011;32289;42.688;23.330;2022-07-10T20:42:43;2.22;;;1.65;;
46561;SDS011;32289;42.688;23.330;2022-07-10T20:46:24;4.90;;;2.13;;
46561;SDS011;32289;42.688;23.330;2022-07-10T20:50:04;4.35;;;1.77;;
46561;SDS011;32289;42.688;23.330;2022-07-10T20:53:46;3.47;;;1.85;;
46561;SDS011;32289;42.688;23.330;2022-07-10T20:57:26;3.38;;;1.83;;
46561;SDS011;32289;42.688;23.330;2022-07-10T21:01:07;3.28;;;1.90;;
46561;SDS011;32289;42.688;23.330;2022-07-10T21:04:48;2.65;;;1.63;;
46561;SDS011;32289;42.688;23.330;2022-07-10T21:08:29;4.05;;;2.35;;
46561;SDS011;32289;42.688;23.330;2022-07-10T21:12:09;3.10;;;1.77;;
46561;SDS011;32289;42.688;23.330;2022-07-10T21:15:50;4.82;;;2.20;;
46561;SDS011;32289;42.688;23.330;2022-07-10T21:19:31;3.78;;;1.90;;
46561;SDS011;32289;42.688;23.330;2022-07-10T21:23:12;2.65;;;1.80;;
46561;SDS011;32289;42.688;23.330;2022-07-10T21:26:53;3.40;;;1.30;;
46561;SDS011;32289;42.688;23.330;2022-07-10T21:30:34;4.05;;;1.67;;
46561;SDS011;32289;42.688;23.330;2022-07-10T21:34:15;2.47;;;1.75;;
46561;SDS011;32289;42.688;23.330;2022-07-10T21:37:56;2.63;;;1.95;;
46561;SDS011;32289;42.688;23.330;2022-07-10T21:41:39;4.00;;;1.48;;
46561;SDS011;32289;42.688;23.330;2022-07-10T21:45:20;4.70;;;2.85;;
46561;SDS011;32289;42.688;23.330;2022-07-10T21:49:01;2.97;;;2.00;;
46561;SDS011;32289;42.688;23.330;2022-07-10T21:52:41;3.47;;;1.58;;
46561;SDS011;32289;42.688;23.330;2022-07-10T21:56:22;3.95;;;1.83;;
46561;SDS011;32289;42.688;23.330;2022-07-10T22:00:06;2.50;;;1.90;;
46561;SDS011;32289;42.688;23.330;2022-07-10T22:03:48;3.50;;;1.83;;